sensor_id;sensor_type;location;lat;lon;timestamp;pressure;altitude;pressure_sealevel;temperature;humidity
70127;BME280;57491;42.694;23.314;2023-01-16T00:00:14;95052.84;;;4.73;69.55
70127;BME280;57491;42.694;23.314;2023-01-16T00:02:41;95043.59;;;4.80;69.23
70127;BME280;57491;42.694;23.314;2023-01-16T00:05:09;95024.28;;;4.66;70.14
70127;BME280;57491;42.694;23.314;2023-01-16T00:07:36;95043.66;;;4.70;69.03
70127;BME280;57491;42.694;23.314;2023-01-16T00:10:04;95044.31;;;4.72;67.26
70127;BME280;57491;42.694;23.314;2023-01-16T00:12:31;95044.16;;;4.74;66.94
70127;BME280;57491;42.694;23.314;2023-01-16T00:15:01;95043.66;;;4.70;68.27
70127;BME280;57491;42.694;23.314;2023-01-16T00:17:28;95042.75;;;4.62;68.12
70127;BME280;57491;42.694;23.314;2023-01-16T00:19:55;95035.91;;;4.70;67.75
70127;BME280;57491;42.694;23.314;2023-01-16T00:22:22;95041.50;;;4.66;66.61
70127;BME280;57491;42.694;23.314;2023-01-16T00:24:49;95024.84;;;4.33;67.41
70127;BME280;57491;42.694;23.314;2023-01-16T00:27:16;95022.16;;;4.34;68.68
70127;BME280;57491;42.694;23.314;2023-01-16T00:29:43;95013.22;;;4.29;69.23
70127;BME280;57491;42.694;23.314;2023-01-16T00:32:12;95025.31;;;4.46;69.70
70127;BME280;57491;42.694;23.314;2023-01-16T00:34:41;95020.19;;;4.46;68.59
70127;BME280;57491;42.694;23.314;2023-01-16T00:37:08;95024.81;;;4.42;68.12
70127;BME280;57491;42.694;23.314;2023-01-16T00:39:35;95017.28;;;4.31;68.74
70127;BME280;57491;42.694;23.314;2023-01-16T00:42:04;95011.59;;;4.28;69.77
70127;BME280;57491;42.694;23.314;2023-01-16T00:44:31;95010.88;;;4.45;70.67
70127;BME280;57491;42.694;23.314;2023-01-16T00:46:58;95003.66;;;4.48;70.17
70127;BME280;57491;42.694;23.314;2023-01-16T00:49:27;95008.38;;;4.53;70.09
70127;BME280;57491;42.694;23.314;2023-01-16T00:51:54;95008.25;;;4.55;69.51
70127;BME280;57491;42.694;23.314;2023-01-16T00:54:21;94993.91;;;4.42;68.93
70127;BME280;57491;42.694;23.314;2023-01-16T00:56:48;95008.25;;;4.55;69.84
70127;BME280;57491;42.694;23.314;2023-01-16T00:59:15;95010.66;;;4.56;69.70
70127;BME280;57491;42.694;23.314;2023-01-16T01:01:42;95006.75;;;4.52;68.78
70127;BME280;57491;42.694;23.314;2023-01-16T01:04:09;94991.13;;;4.63;70.86
70127;BME280;57491;42.694;23.314;2023-01-16T01:06:39;94991.97;;;4.54;70.74
70127;BME280;57491;42.694;23.314;2023-01-16T01:09:06;95003.59;;;4.58;69.84
70127;BME280;57491;42.694;23.314;2023-01-16T01:11:34;94999.41;;;4.57;69.32
70127;BME280;57491;42.694;23.314;2023-01-16T01:14:01;94989.78;;;4.59;69.18
70127;BME280;57491;42.694;23.314;2023-01-16T01:16:28;94984.38;;;4.53;69.69
70127;BME280;57491;42.694;23.314;2023-01-16T01:18:55;95000.13;;;4.49;69.18
70127;BME280;57491;42.694;23.314;2023-01-16T01:21:22;95001.66;;;4.42;68.66
70127;BME280;57491;42.694;23.314;2023-01-16T01:23:50;94996.53;;;4.33;69.53
70127;BME280;57491;42.694;23.314;2023-01-16T01:26:18;94990.91;;;4.20;71.19
70127;BME280;57491;42.694;23.314;2023-01-16T01:28:45;94982.34;;;4.29;70.99
70127;BME280;57491;42.694;23.314;2023-01-16T01:31:13;94989.06;;;4.39;70.31
70127;BME280;57491;42.694;23.314;2023-01-16T01:33:41;94977.97;;;4.39;70.71
70127;BME280;57491;42.694;23.314;2023-01-16T01:36:09;94945.28;;;4.22;72.12
70127;BME280;57491;42.694;23.314;2023-01-16T01:38:36;94952.53;;;4.36;71.09
70127;BME280;57491;42.694;23.314;2023-01-16T01:41:05;94950.59;;;4.38;69.56
70127;BME280;57491;42.694;23.314;2023-01-16T01:43:43;94965.59;;;4.42;69.43
70127;BME280;57491;42.694;23.314;2023-01-16T01:46:18;94961.41;;;4.41;70.47
70127;BME280;57491;42.694;23.314;2023-01-16T01:48:48;94964.97;;;4.40;71.31
70127;BME280;57491;42.694;23.314;2023-01-16T01:51:19;94966.28;;;4.44;71.29
70127;BME280;57491;42.694;23.314;2023-01-16T01:53:53;94967.31;;;4.52;71.12
70127;BME280;57491;42.694;23.314;2023-01-16T01:56:25;94965.69;;;4.50;70.44
70127;BME280;57491;42.694;23.314;2023-01-16T01:58:55;94960.31;;;4.44;70.40
70127;BME280;57491;42.694;23.314;2023-01-16T02:01:23;94939.22;;;4.40;69.46
70127;BME280;57491;42.694;23.314;2023-01-16T02:03:53;94934.19;;;4.39;69.19
70127;BME280;57491;42.694;23.314;2023-01-16T02:06:28;94894.38;;;4.16;69.55
70127;BME280;57491;42.694;23.314;2023-01-16T02:08:57;94952.97;;;4.49;70.63
70127;BME280;57491;42.694;23.314;2023-01-16T02:11:31;94952.97;;;4.49;70.52
70127;BME280;57491;42.694;23.314;2023-01-16T02:14:05;94953.19;;;4.56;71.38
70127;BME280;57491;42.694;23.314;2023-01-16T02:16:33;94951.16;;;4.59;69.54
70127;BME280;57491;42.694;23.314;2023-01-16T02:19:24;94946.97;;;4.58;68.96
70127;BME280;57491;42.694;23.314;2023-01-16T02:22:15;94941.00;;;4.58;69.30
70127;BME280;57491;42.694;23.314;2023-01-16T02:25:03;94930.69;;;4.40;68.57
70127;BME280;57491;42.694;23.314;2023-01-16T02:28:03;94929.44;;;4.44;69.76
70127;BME280;57491;42.694;23.314;2023-01-16T02:33:57;94924.34;;;4.34;68.95
70127;BME280;57491;42.694;23.314;2023-01-16T02:36:37;94919.50;;;4.31;69.57
70127;BME280;57491;42.694;23.314;2023-01-16T02:39:14;94904.63;;;4.25;71.86
70127;BME280;57491;42.694;23.314;2023-01-16T02:41:48;94919.19;;;4.34;70.98
70127;BME280;57491;42.694;23.314;2023-01-16T02:44:25;94849.16;;;3.95;69.96
70127;BME280;57491;42.694;23.314;2023-01-16T02:47:02;94907.31;;;4.24;70.03
70127;BME280;57491;42.694;23.314;2023-01-16T02:49:37;94926.19;;;4.42;70.50
70127;BME280;57491;42.694;23.314;2023-01-16T02:52:12;94921.03;;;4.42;70.09
70127;BME280;57491;42.694;23.314;2023-01-16T02:54:45;94912.38;;;4.43;69.57
70127;BME280;57491;42.694;23.314;2023-01-16T02:57:15;94908.53;;;4.47;70.34
70127;BME280;57491;42.694;23.314;2023-01-16T02:59:43;94895.22;;;4.34;70.02
70127;BME280;57491;42.694;23.314;2023-01-16T03:02:11;94911.13;;;4.47;69.26
70127;BME280;57491;42.694;23.314;2023-01-16T03:04:48;94909.94;;;4.41;68.58
70127;BME280;57491;42.694;23.314;2023-01-16T03:07:23;94896.16;;;4.33;69.03
70127;BME280;57491;42.694;23.314;2023-01-16T03:10:04;94911.59;;;4.33;69.20
70127;BME280;57491;42.694;23.314;2023-01-16T03:12:44;94904.16;;;4.12;69.56
70127;BME280;57491;42.694;23.314;2023-01-16T03:15:21;94892.31;;;4.19;72.22
70127;BME280;57491;42.694;23.314;2023-01-16T03:17:58;94887.34;;;4.18;73.27
70127;BME280;57491;42.694;23.314;2023-01-16T03:20:39;94871.66;;;4.11;71.57
70127;BME280;57491;42.694;23.314;2023-01-16T03:23:22;94888.97;;;4.19;71.71
70127;BME280;57491;42.694;23.314;2023-01-16T03:25:55;94875.72;;;4.14;71.71
70127;BME280;57491;42.694;23.314;2023-01-16T03:28:32;94880.13;;;4.21;71.56
70127;BME280;57491;42.694;23.314;2023-01-16T03:31:06;94834.66;;;3.94;71.86
70127;BME280;57491;42.694;23.314;2023-01-16T03:33:40;94872.34;;;4.31;71.40
70127;BME280;57491;42.694;23.314;2023-01-16T03:36:15;94876.38;;;4.33;72.26
70127;BME280;57491;42.694;23.314;2023-01-16T03:38:48;94846.19;;;4.18;71.96
70127;BME280;57491;42.694;23.314;2023-01-16T03:41:21;94859.13;;;4.26;71.08
70127;BME280;57491;42.694;23.314;2023-01-16T03:43:52;94859.69;;;4.20;71.83
70127;BME280;57491;42.694;23.314;2023-01-16T03:46:26;94823.88;;;4.09;72.29
70127;BME280;57491;42.694;23.314;2023-01-16T03:48:56;94843.44;;;4.19;72.06
70127;BME280;57491;42.694;23.314;2023-01-16T03:51:29;94815.94;;;4.02;71.55
70127;BME280;57491;42.694;23.314;2023-01-16T03:54:01;94840.28;;;4.08;71.42
70127;BME280;57491;42.694;23.314;2023-01-16T03:56:32;94840.22;;;4.17;71.89
70127;BME280;57491;42.694;23.314;2023-01-16T03:59:01;94835.72;;;4.19;72.02
70127;BME280;57491;42.694;23.314;2023-01-16T04:01:36;94824.25;;;4.14;71.22
70127;BME280;57491;42.694;23.314;2023-01-16T04:04:06;94840.50;;;4.14;71.05
70127;BME280;57491;42.694;23.314;2023-01-16T04:06:41;94840.94;;;4.10;71.67
70127;BME280;57491;42.694;23.314;2023-01-16T04:09:16;94780.47;;;3.78;72.47
70127;BME280;57491;42.694;23.314;2023-01-16T04:11:46;94836.53;;;4.20;71.27
70127;BME280;57491;42.694;23.314;2023-01-16T04:14:18;94843.72;;;4.16;72.64
70127;BME280;57491;42.694;23.314;2023-01-16T04:16:48;94844.69;;;4.15;72.54
70127;BME280;57491;42.694;23.314;2023-01-16T04:19:17;94808.91;;;4.04;73.04
70127;BME280;57491;42.694;23.314;2023-01-16T04:21:47;94835.81;;;4.27;72.63
70127;BME280;57491;42.694;23.314;2023-01-16T04:24:14;94834.84;;;4.28;71.99
70127;BME280;57491;42.694;23.314;2023-01-16T04:26:42;94836.91;;;4.25;71.60
70127;BME280;57491;42.694;23.314;2023-01-16T04:29:09;94811.41;;;4.14;71.03
70127;BME280;57491;42.694;23.314;2023-01-16T04:31:36;94834.94;;;4.19;70.79
70127;BME280;57491;42.694;23.314;2023-01-16T04:34:03;94821.31;;;4.09;71.91
70127;BME280;57491;42.694;23.314;2023-01-16T04:36:31;94823.88;;;4.09;71.27
70127;BME280;57491;42.694;23.314;2023-01-16T04:38:59;94766.88;;;3.68;71.50
70127;BME280;57491;42.694;23.314;2023-01-16T04:41:26;94664.56;;;2.82;72.17
70127;BME280;57491;42.694;23.314;2023-01-16T04:44:03;94779.31;;;3.73;72.98
70127;BME280;57491;42.694;23.314;2023-01-16T04:46:31;94818.00;;;3.98;72.54
70127;BME280;57491;42.694;23.314;2023-01-16T04:48:58;94806.88;;;3.80;72.60
70127;BME280;57491;42.694;23.314;2023-01-16T04:51:26;94788.69;;;3.64;72.61
70127;BME280;57491;42.694;23.314;2023-01-16T04:53:54;94820.16;;;3.76;73.18
70127;BME280;57491;42.694;23.314;2023-01-16T04:56:23;94814.19;;;3.75;73.33
70127;BME280;57491;42.694;23.314;2023-01-16T04:58:50;94811.78;;;3.74;72.89
70127;BME280;57491;42.694;23.314;2023-01-16T05:01:20;94811.84;;;3.64;73.16
70127;BME280;57491;42.694;23.314;2023-01-16T05:03:47;94801.81;;;3.61;74.03
70127;BME280;57491;42.694;23.314;2023-01-16T05:06:15;94808.44;;;3.64;73.60
70127;BME280;57491;42.694;23.314;2023-01-16T05:08:42;94816.56;;;3.69;73.97
70127;BME280;57491;42.694;23.314;2023-01-16T05:11:09;94810.44;;;3.70;73.04
70127;BME280;57491;42.694;23.314;2023-01-16T05:13:38;94820.50;;;3.63;73.19
70127;BME280;57491;42.694;23.314;2023-01-16T05:16:05;94812.91;;;3.62;73.33
70127;BME280;57491;42.694;23.314;2023-01-16T05:18:32;94799.38;;;3.69;73.63
70127;BME280;57491;42.694;23.314;2023-01-16T05:21:00;94786.84;;;3.74;74.83
70127;BME280;57491;42.694;23.314;2023-01-16T05:23:27;94798.59;;;3.86;73.10
70127;BME280;57491;42.694;23.314;2023-01-16T05:25:54;94780.78;;;3.75;72.47
70127;BME280;57491;42.694;23.314;2023-01-16T05:28:21;94788.88;;;3.80;73.22
70127;BME280;57491;42.694;23.314;2023-01-16T05:30:50;94796.88;;;3.77;73.07
70127;BME280;57491;42.694;23.314;2023-01-16T05:33:17;94791.91;;;3.66;73.05
70127;BME280;57491;42.694;23.314;2023-01-16T05:35:45;94783.25;;;3.67;73.08
70127;BME280;57491;42.694;23.314;2023-01-16T05:38:12;94774.84;;;3.47;73.41
70127;BME280;57491;42.694;23.314;2023-01-16T05:40:39;94777.66;;;3.54;73.30
70127;BME280;57491;42.694;23.314;2023-01-16T05:43:06;94773.75;;;3.50;73.61
70127;BME280;57491;42.694;23.314;2023-01-16T05:45:33;94742.78;;;3.24;73.68
70127;BME280;57491;42.694;23.314;2023-01-16T05:48:01;94775.00;;;3.46;73.95
70127;BME280;57491;42.694;23.314;2023-01-16T05:50:29;94783.13;;;3.41;74.20
70127;BME280;57491;42.694;23.314;2023-01-16T05:52:56;94768.19;;;3.27;74.41
70127;BME280;57491;42.694;23.314;2023-01-16T05:55:23;94784.13;;;3.31;74.65
70127;BME280;57491;42.694;23.314;2023-01-16T05:57:51;94784.63;;;3.34;75.55
70127;BME280;57491;42.694;23.314;2023-01-16T06:00:19;94771.66;;;3.36;75.28
70127;BME280;57491;42.694;23.314;2023-01-16T06:02:46;94777.56;;;3.46;74.48
70127;BME280;57491;42.694;23.314;2023-01-16T06:05:14;94770.75;;;3.54;75.74
70127;BME280;57491;42.694;23.314;2023-01-16T06:07:41;94749.69;;;3.51;74.15
70127;BME280;57491;42.694;23.314;2023-01-16T06:10:09;94760.69;;;3.61;74.17
70127;BME280;57491;42.694;23.314;2023-01-16T06:12:36;94756.00;;;3.74;74.52
70127;BME280;57491;42.694;23.314;2023-01-16T06:15:04;94756.69;;;3.76;73.20
70127;BME280;57491;42.694;23.314;2023-01-16T06:17:32;94764.53;;;3.75;73.13
70127;BME280;57491;42.694;23.314;2023-01-16T06:19:59;94745.97;;;3.81;73.23
70127;BME280;57491;42.694;23.314;2023-01-16T06:22:27;94730.22;;;3.66;72.65
70127;BME280;57491;42.694;23.314;2023-01-16T06:24:54;94741.69;;;3.72;72.49
70127;BME280;57491;42.694;23.314;2023-01-16T06:27:21;94769.25;;;3.97;74.09
70127;BME280;57491;42.694;23.314;2023-01-16T06:29:48;94778.84;;;4.04;72.71
70127;BME280;57491;42.694;23.314;2023-01-16T06:32:15;94776.03;;;4.16;72.58
70127;BME280;57491;42.694;23.314;2023-01-16T06:34:43;94773.53;;;4.24;72.55
70127;BME280;57491;42.694;23.314;2023-01-16T06:37:11;94774.94;;;4.18;70.62
70127;BME280;57491;42.694;23.314;2023-01-16T06:39:40;94779.91;;;4.20;70.89
70127;BME280;57491;42.694;23.314;2023-01-16T06:42:07;94791.03;;;4.20;71.26
70127;BME280;57491;42.694;23.314;2023-01-16T06:44:35;94785.75;;;4.22;71.67
70127;BME280;57491;42.694;23.314;2023-01-16T06:47:02;94755.06;;;4.28;72.62
70127;BME280;57491;42.694;23.314;2023-01-16T06:49:29;94764.44;;;4.55;70.56
70127;BME280;57491;42.694;23.314;2023-01-16T06:51:57;94742.75;;;4.58;70.69
70127;BME280;57491;42.694;23.314;2023-01-16T06:54:26;94744.22;;;4.60;68.87
70127;BME280;57491;42.694;23.314;2023-01-16T06:56:55;94759.38;;;4.63;68.41
70127;BME280;57491;42.694;23.314;2023-01-16T06:59:22;94776.41;;;4.64;68.78
70127;BME280;57491;42.694;23.314;2023-01-16T07:01:49;94767.16;;;4.71;69.54
70127;BME280;57491;42.694;23.314;2023-01-16T07:04:16;94771.59;;;4.87;71.88
70127;BME280;57491;42.694;23.314;2023-01-16T07:06:44;94759.63;;;5.04;70.44
70127;BME280;57491;42.694;23.314;2023-01-16T07:09:11;94740.69;;;5.13;68.24
70127;BME280;57491;42.694;23.314;2023-01-16T07:11:38;94734.72;;;5.12;67.99
70127;BME280;57491;42.694;23.314;2023-01-16T07:14:08;94768.41;;;5.27;67.00
70127;BME280;57491;42.694;23.314;2023-01-16T07:16:52;94758.28;;;5.25;67.03
70127;BME280;57491;42.694;23.314;2023-01-16T07:19:36;94757.19;;;5.36;67.02
70127;BME280;57491;42.694;23.314;2023-01-16T07:22:21;94745.56;;;5.32;67.30
70127;BME280;57491;42.694;23.314;2023-01-16T07:25:08;94756.94;;;5.47;66.69
70127;BME280;57491;42.694;23.314;2023-01-16T07:27:38;94756.59;;;5.50;66.78
70127;BME280;57491;42.694;23.314;2023-01-16T07:30:08;94749.88;;;5.57;66.05
70127;BME280;57491;42.694;23.314;2023-01-16T07:32:36;94754.25;;;5.73;67.12
70127;BME280;57491;42.694;23.314;2023-01-16T07:35:04;94743.66;;;5.76;65.57
70127;BME280;57491;42.694;23.314;2023-01-16T07:37:31;94752.84;;;5.78;66.54
70127;BME280;57491;42.694;23.314;2023-01-16T07:39:58;94736.22;;;5.81;65.49
70127;BME280;57491;42.694;23.314;2023-01-16T07:42:25;94737.41;;;5.87;65.21
70127;BME280;57491;42.694;23.314;2023-01-16T07:44:52;94730.91;;;5.82;64.55
70127;BME280;57491;42.694;23.314;2023-01-16T07:47:21;94703.28;;;5.59;63.94
70127;BME280;57491;42.694;23.314;2023-01-16T07:49:48;94696.88;;;5.63;65.48
70127;BME280;57491;42.694;23.314;2023-01-16T07:52:15;94721.94;;;5.95;66.37
70127;BME280;57491;42.694;23.314;2023-01-16T07:54:44;94708.88;;;6.12;65.20
70127;BME280;57491;42.694;23.314;2023-01-16T07:57:11;94707.75;;;6.31;63.88
70127;BME280;57491;42.694;23.314;2023-01-16T07:59:38;94699.19;;;6.55;64.90
70127;BME280;57491;42.694;23.314;2023-01-16T08:02:05;94691.88;;;6.83;63.60
70127;BME280;57491;42.694;23.314;2023-01-16T08:04:33;94685.63;;;7.24;63.19
70127;BME280;57491;42.694;23.314;2023-01-16T08:07:01;94657.75;;;7.42;61.10
70127;BME280;57491;42.694;23.314;2023-01-16T08:09:28;94707.66;;;7.82;59.71
70127;BME280;57491;42.694;23.314;2023-01-16T08:11:55;94701.78;;;7.88;59.67
70127;BME280;57491;42.694;23.314;2023-01-16T08:14:22;94703.34;;;7.97;59.28
70127;BME280;57491;42.694;23.314;2023-01-16T08:16:49;94706.41;;;8.00;59.17
70127;BME280;57491;42.694;23.314;2023-01-16T08:19:16;94715.72;;;8.10;58.26
70127;BME280;57491;42.694;23.314;2023-01-16T08:21:45;94719.13;;;8.10;58.55
70127;BME280;57491;42.694;23.314;2023-01-16T08:24:12;94709.44;;;8.04;58.81
70127;BME280;57491;42.694;23.314;2023-01-16T08:26:40;94716.91;;;7.99;59.79
70127;BME280;57491;42.694;23.314;2023-01-16T08:29:08;94714.84;;;7.94;59.21
70127;BME280;57491;42.694;23.314;2023-01-16T08:31:35;94713.22;;;7.93;60.16
70127;BME280;57491;42.694;23.314;2023-01-16T08:34:03;94695.91;;;7.94;59.25
70127;BME280;57491;42.694;23.314;2023-01-16T08:36:30;94695.41;;;7.98;59.75
70127;BME280;57491;42.694;23.314;2023-01-16T08:38:58;94683.56;;;8.04;58.11
70127;BME280;57491;42.694;23.314;2023-01-16T08:41:25;94678.75;;;8.16;58.68
70127;BME280;57491;42.694;23.314;2023-01-16T08:44:10;94677.72;;;8.33;59.17
70127;BME280;57491;42.694;23.314;2023-01-16T08:46:57;94682.75;;;8.49;57.32
70127;BME280;57491;42.694;23.314;2023-01-16T08:49:43;94665.84;;;8.53;56.88
70127;BME280;57491;42.694;23.314;2023-01-16T08:52:28;94663.72;;;8.57;58.28
70127;BME280;57491;42.694;23.314;2023-01-16T08:54:58;94663.97;;;8.24;56.35
70127;BME280;57491;42.694;23.314;2023-01-16T08:57:25;94683.66;;;8.33;57.03
70127;BME280;57491;42.694;23.314;2023-01-16T08:59:52;94680.22;;;8.41;57.86
70127;BME280;57491;42.694;23.314;2023-01-16T09:02:20;94677.97;;;8.38;58.03
70127;BME280;57491;42.694;23.314;2023-01-16T09:04:47;94669.66;;;8.42;57.64
70127;BME280;57491;42.694;23.314;2023-01-16T09:07:14;94648.25;;;8.48;57.29
70127;BME280;57491;42.694;23.314;2023-01-16T09:09:41;94650.94;;;8.40;56.56
70127;BME280;57491;42.694;23.314;2023-01-16T09:12:11;94653.50;;;8.40;55.45
70127;BME280;57491;42.694;23.314;2023-01-16T09:14:56;94651.63;;;8.34;54.84
70127;BME280;57491;42.694;23.314;2023-01-16T09:17:25;94639.69;;;8.25;56.61
70127;BME280;57491;42.694;23.314;2023-01-16T09:19:52;94637.97;;;8.40;56.15
70127;BME280;57491;42.694;23.314;2023-01-16T09:22:19;94623.75;;;8.51;56.67
70127;BME280;57491;42.694;23.314;2023-01-16T09:24:46;94621.19;;;8.66;55.52
70127;BME280;57491;42.694;23.314;2023-01-16T09:27:15;94634.50;;;8.92;54.94
70127;BME280;57491;42.694;23.314;2023-01-16T09:29:44;94624.50;;;9.04;54.70
70127;BME280;57491;42.694;23.314;2023-01-16T09:32:11;94617.06;;;9.15;54.61
70127;BME280;57491;42.694;23.314;2023-01-16T09:34:39;94624.47;;;9.33;53.04
70127;BME280;57491;42.694;23.314;2023-01-16T09:37:06;94616.25;;;9.29;53.49
70127;BME280;57491;42.694;23.314;2023-01-16T09:39:34;94605.16;;;9.21;53.06
70127;BME280;57491;42.694;23.314;2023-01-16T09:42:23;94613.19;;;9.40;54.15
70127;BME280;57491;42.694;23.314;2023-01-16T09:45:16;94619.91;;;9.71;52.80
70127;BME280;57491;42.694;23.314;2023-01-16T09:47:47;94602.34;;;9.94;51.37
70127;BME280;57491;42.694;23.314;2023-01-16T09:50:20;94570.28;;;9.80;50.98
70127;BME280;57491;42.694;23.314;2023-01-16T09:52:51;94556.97;;;9.69;49.82
70127;BME280;57491;42.694;23.314;2023-01-16T09:55:39;94598.28;;;9.85;50.72
70127;BME280;57491;42.694;23.314;2023-01-16T09:58:27;94582.06;;;9.62;51.30
70127;BME280;57491;42.694;23.314;2023-01-16T10:01:05;94594.88;;;9.27;51.53
70127;BME280;57491;42.694;23.314;2023-01-16T10:03:33;94583.78;;;9.19;52.50
70127;BME280;57491;42.694;23.314;2023-01-16T10:06:14;94592.19;;;9.21;51.80
70127;BME280;57491;42.694;23.314;2023-01-16T10:08:52;94564.94;;;9.10;53.07
70127;BME280;57491;42.694;23.314;2023-01-16T10:11:27;94568.81;;;9.00;53.23
70127;BME280;57491;42.694;23.314;2023-01-16T10:14:19;94557.63;;;8.99;53.30
70127;BME280;57491;42.694;23.314;2023-01-16T10:17:02;94546.28;;;9.00;53.20
70127;BME280;57491;42.694;23.314;2023-01-16T10:19:43;94543.94;;;9.05;53.16
70127;BME280;57491;42.694;23.314;2023-01-16T10:22:24;94533.78;;;9.25;52.74
70127;BME280;57491;42.694;23.314;2023-01-16T10:25:05;94526.56;;;9.41;52.16
70127;BME280;57491;42.694;23.314;2023-01-16T10:27:36;94530.03;;;9.49;52.47
70127;BME280;57491;42.694;23.314;2023-01-16T10:30:14;94501.25;;;9.44;52.09
70127;BME280;57491;42.694;23.314;2023-01-16T10:32:47;94519.97;;;9.81;51.71
70127;BME280;57491;42.694;23.314;2023-01-16T10:35:22;94504.50;;;10.01;51.69
70127;BME280;57491;42.694;23.314;2023-01-16T10:37:50;94502.78;;;10.08;50.79
70127;BME280;57491;42.694;23.314;2023-01-16T10:40:19;94510.88;;;10.20;50.28
70127;BME280;57491;42.694;23.314;2023-01-16T10:42:52;94501.34;;;10.06;50.52
70127;BME280;57491;42.694;23.314;2023-01-16T10:45:42;94505.09;;;10.24;51.33
70127;BME280;57491;42.694;23.314;2023-01-16T10:48:55;94490.34;;;10.32;50.16
70127;BME280;57491;42.694;23.314;2023-01-16T10:51:40;94487.06;;;10.51;50.06
70127;BME280;57491;42.694;23.314;2023-01-16T10:54:07;94465.72;;;11.29;48.40
70127;BME280;57491;42.694;23.314;2023-01-16T10:56:34;94445.19;;;12.64;45.55
70127;BME280;57491;42.694;23.314;2023-01-16T10:59:02;94438.31;;;14.20;41.76
70127;BME280;57491;42.694;23.314;2023-01-16T11:01:33;94440.53;;;15.67;38.21
70127;BME280;57491;42.694;23.314;2023-01-16T11:04:05;94434.19;;;16.33;36.69
70127;BME280;57491;42.694;23.314;2023-01-16T11:06:32;94430.75;;;16.44;36.27
70127;BME280;57491;42.694;23.314;2023-01-16T11:09:04;94433.13;;;16.69;34.90
70127;BME280;57491;42.694;23.314;2023-01-16T11:11:39;94426.81;;;16.81;34.92
70127;BME280;57491;42.694;23.314;2023-01-16T11:14:26;94402.84;;;17.34;33.57
70127;BME280;57491;42.694;23.314;2023-01-16T11:17:23;94401.75;;;18.31;31.89
70127;BME280;57491;42.694;23.314;2023-01-16T11:20:12;94376.91;;;20.93;28.42
70127;BME280;57491;42.694;23.314;2023-01-16T11:22:40;94425.97;;;21.36;27.52
70127;BME280;57491;42.694;23.314;2023-01-16T11:25:14;94422.84;;;20.82;28.32
70127;BME280;57491;42.694;23.314;2023-01-16T11:27:44;94422.13;;;20.97;27.31
70127;BME280;57491;42.694;23.314;2023-01-16T11:30:16;94414.47;;;23.07;25.78
70127;BME280;57491;42.694;23.314;2023-01-16T11:32:47;94412.41;;;24.50;24.03
70127;BME280;57491;42.694;23.314;2023-01-16T11:35:16;94406.16;;;25.73;21.89
70127;BME280;57491;42.694;23.314;2023-01-16T11:37:48;94401.63;;;26.25;21.60
70127;BME280;57491;42.694;23.314;2023-01-16T11:40:19;94393.78;;;26.61;20.68
70127;BME280;57491;42.694;23.314;2023-01-16T11:42:52;94362.72;;;24.74;22.18
70127;BME280;57491;42.694;23.314;2023-01-16T11:45:42;94391.88;;;24.56;22.43
70127;BME280;57491;42.694;23.314;2023-01-16T11:48:33;94388.16;;;23.65;23.09
70127;BME280;57491;42.694;23.314;2023-01-16T11:51:01;94380.84;;;22.93;24.36
70127;BME280;57491;42.694;23.314;2023-01-16T11:53:31;94344.81;;;22.92;24.50
70127;BME280;57491;42.694;23.314;2023-01-16T11:56:10;94364.09;;;23.90;23.16
70127;BME280;57491;42.694;23.314;2023-01-16T11:58:51;94353.06;;;24.02;22.77
70127;BME280;57491;42.694;23.314;2023-01-16T12:01:21;94341.25;;;22.47;24.20
70127;BME280;57491;42.694;23.314;2023-01-16T12:04:04;94341.88;;;21.28;26.00
70127;BME280;57491;42.694;23.314;2023-01-16T12:06:40;94341.47;;;20.27;27.49
70127;BME280;57491;42.694;23.314;2023-01-16T12:09:25;94344.91;;;19.22;28.76
70127;BME280;57491;42.694;23.314;2023-01-16T12:12:06;94340.84;;;18.82;30.00
70127;BME280;57491;42.694;23.314;2023-01-16T12:14:53;94329.34;;;18.06;31.15
70127;BME280;57491;42.694;23.314;2023-01-16T12:17:28;94328.66;;;16.42;33.83
70127;BME280;57491;42.694;23.314;2023-01-16T12:20:26;94334.31;;;15.99;34.38
70127;BME280;57491;42.694;23.314;2023-01-16T12:23:21;94324.31;;;14.97;36.23
70127;BME280;57491;42.694;23.314;2023-01-16T12:25:58;94324.06;;;14.20;37.55
70127;BME280;57491;42.694;23.314;2023-01-16T12:32:30;94322.38;;;13.28;39.54
70127;BME280;57491;42.694;23.314;2023-01-16T12:38:10;94281.94;;;12.19;42.41
70127;BME280;57491;42.694;23.314;2023-01-16T12:40:51;94301.91;;;12.38;42.47
70127;BME280;57491;42.694;23.314;2023-01-16T12:43:47;94300.09;;;11.87;43.81
70127;BME280;57491;42.694;23.314;2023-01-16T12:46:21;94288.31;;;11.65;44.99
70127;BME280;57491;42.694;23.314;2023-01-16T12:49:00;94297.34;;;11.36;45.62
70127;BME280;57491;42.694;23.314;2023-01-16T12:51:54;94283.78;;;10.82;46.68
70127;BME280;57491;42.694;23.314;2023-01-16T12:54:39;94289.13;;;10.54;47.32
70127;BME280;57491;42.694;23.314;2023-01-16T12:57:33;94282.44;;;10.18;48.23
70127;BME280;57491;42.694;23.314;2023-01-16T13:03:49;94268.81;;;10.03;49.12
70127;BME280;57491;42.694;23.314;2023-01-16T13:06:32;94240.34;;;9.82;49.85
70127;BME280;57491;42.694;23.314;2023-01-16T13:09:02;94259.22;;;10.04;50.37
70127;BME280;57491;42.694;23.314;2023-01-16T13:11:49;94252.78;;;9.93;50.32
70127;BME280;57491;42.694;23.314;2023-01-16T13:14:36;94244.53;;;9.76;50.97
70127;BME280;57491;42.694;23.314;2023-01-16T13:17:07;94245.88;;;9.66;52.60
70127;BME280;57491;42.694;23.314;2023-01-16T13:19:39;94244.91;;;9.67;51.20
70127;BME280;57491;42.694;23.314;2023-01-16T13:22:15;94217.63;;;9.43;50.74
70127;BME280;57491;42.694;23.314;2023-01-16T13:24:51;94182.13;;;9.03;51.73
70127;BME280;57491;42.694;23.314;2023-01-16T13:27:31;94227.59;;;9.39;52.11
70127;BME280;57491;42.694;23.314;2023-01-16T13:30:08;94212.34;;;9.23;51.89
70127;BME280;57491;42.694;23.314;2023-01-16T13:32:38;94229.19;;;9.00;54.13
70127;BME280;57491;42.694;23.314;2023-01-16T13:35:12;94240.00;;;9.10;52.90
70127;BME280;57491;42.694;23.314;2023-01-16T13:37:55;94232.44;;;9.15;52.55